Terminal Aerodrome Forecast
Issued by NWS

Home | Current Version | Previous Version | Text Only | Print | Product List | Glossary On
Versions: 1 2 3 4 5 6 7 8 9 10 11 12 13 14
000
FTUS42 KGSP 192320
TAFAND
TAF
KAND 192320Z 2000/2024 00000KT P6SM SKC
     FM201100 VRB02KT 5SM BR SKC
      TEMPO 2011/2013 3SM BR
     FM201300 06004KT P6SM FEW250
     FM201900 12004KT P6SM FEW250=

USA.gov is the U.S. government's official web portal to all federal, state and local government web resources and services.